ANA154 RJOK-RJNT
Flight info
| Callsign | ANA154 |
|---|---|
| Flight time | 0h 55m |
| Altitude | 33000 |
| Route | KRE V53 KTE V38 KMC V30 URUSI |
| Aircraft | B738/M-V/N |
Departure
| Time | 2026-04-27 23:48 |
|---|---|
| Airport | Kochi Ryoma Airport (RJOK) |
Arrival
| Time | 2026-04-28 00:44 |
|---|---|
| Airport | Toyama Kitokito Airport (RJNT) |
| Time | Latitude | Longitude | Altitude | Speed | Heading |
|---|---|---|---|---|---|
| 2026-04-27 23:32 | 33.54773 | 133.67252 | 36 ft | 0 kts | 39° |
| 2026-04-27 23:41 | 33.54764 | 133.67244 | 36 ft | 2 kts | 39° |
| 2026-04-27 23:41 | 33.54752 | 133.67232 | 36 ft | 2 kts | 39° |
| 2026-04-27 23:41 | 33.54740 | 133.67221 | 36 ft | 2 kts | 39° |
| 2026-04-27 23:41 | 33.54729 | 133.67210 | 36 ft | 2 kts | 39° |
| 2026-04-27 23:42 | 33.54717 | 133.67198 | 36 ft | 2 kts | 39° |
| 2026-04-27 23:42 | 33.54705 | 133.67188 | 36 ft | 2 kts | 47° |
| 2026-04-27 23:42 | 33.54697 | 133.67171 | 36 ft | 2 kts | 69° |
| 2026-04-27 23:42 | 33.54693 | 133.67152 | 36 ft | 2 kts | 89° |
| 2026-04-27 23:43 | 33.54695 | 133.67133 | 36 ft | 2 kts | 109° |
| 2026-04-27 23:43 | 33.54702 | 133.67117 | 36 ft | 1 kts | 128° |
| 2026-04-27 23:43 | 33.54706 | 133.67111 | 36 ft | 1 kts | 131° |
| 2026-04-27 23:43 | 33.54707 | 133.67110 | 36 ft | 0 kts | 131° |
| 2026-04-27 23:45 | 33.54702 | 133.67117 | 36 ft | 6 kts | 131° |
| 2026-04-27 23:45 | 33.54659 | 133.67175 | 36 ft | 9 kts | 131° |
| 2026-04-27 23:45 | 33.54596 | 133.67261 | 34 ft | 21 kts | 131° |
| 2026-04-27 23:45 | 33.54461 | 133.67441 | 32 ft | 37 kts | 130° |
| 2026-04-27 23:46 | 33.54291 | 133.67679 | 31 ft | 37 kts | 130° |
| 2026-04-27 23:46 | 33.54124 | 133.67912 | 29 ft | 37 kts | 131° |
| 2026-04-27 23:46 | 33.53966 | 133.68042 | 28 ft | 25 kts | 213° |
| 2026-04-27 23:46 | 33.53925 | 133.67889 | 29 ft | 23 kts | 306° |
| 2026-04-27 23:47 | 33.53949 | 133.67851 | 29 ft | 0 kts | 308° |
| 2026-04-27 23:47 | 33.54096 | 133.67648 | 29 ft | 69 kts | 311° |
| 2026-04-27 23:47 | 33.54502 | 133.67081 | 33 ft | 127 kts | 310° |
| 2026-04-27 23:48 | 33.55146 | 133.66185 | 117 ft | 169 kts | 311° |
| 2026-04-27 23:48 | 33.55827 | 133.65176 | 843 ft | 165 kts | 307° |
| 2026-04-27 23:48 | 33.56579 | 133.64278 | 1451 ft | 171 kts | 331° |
| 2026-04-27 23:48 | 33.57743 | 133.64108 | 1881 ft | 188 kts | 14° |
| 2026-04-27 23:49 | 33.58838 | 133.64951 | 2258 ft | 207 kts | 51° |
| 2026-04-27 23:49 | 33.59421 | 133.66463 | 2685 ft | 220 kts | 82° |
| 2026-04-27 23:49 | 33.59208 | 133.68211 | 3110 ft | 231 kts | 121° |
| 2026-04-27 23:49 | 33.58079 | 133.69505 | 3558 ft | 240 kts | 159° |
| 2026-04-27 23:50 | 33.56455 | 133.69728 | 4001 ft | 250 kts | 194° |
| 2026-04-27 23:50 | 33.54817 | 133.68965 | 4614 ft | 257 kts | 204° |
| 2026-04-27 23:50 | 33.53135 | 133.68500 | 5287 ft | 265 kts | 183° |
| 2026-04-27 23:50 | 33.51406 | 133.68935 | 6017 ft | 273 kts | 159° |
| 2026-04-27 23:51 | 33.49825 | 133.69995 | 6704 ft | 279 kts | 151° |
| 2026-04-27 23:51 | 33.48210 | 133.71227 | 7350 ft | 285 kts | 152° |
| 2026-04-27 23:51 | 33.46596 | 133.72385 | 7975 ft | 289 kts | 154° |
| 2026-04-27 23:51 | 33.44915 | 133.73497 | 8610 ft | 293 kts | 156° |
| 2026-04-27 23:52 | 33.43132 | 133.74629 | 9268 ft | 297 kts | 157° |
| 2026-04-27 23:52 | 33.41302 | 133.75775 | 9917 ft | 302 kts | 157° |
| 2026-04-27 23:52 | 33.39429 | 133.76949 | 10415 ft | 312 kts | 157° |
| 2026-04-27 23:52 | 33.37515 | 133.78307 | 10791 ft | 331 kts | 147° |
| 2026-04-27 23:53 | 33.35888 | 133.80321 | 11097 ft | 354 kts | 129° |
| 2026-04-27 23:53 | 33.34737 | 133.82948 | 11393 ft | 374 kts | 112° |
| 2026-04-27 23:53 | 33.34103 | 133.85947 | 11683 ft | 392 kts | 100° |
| 2026-04-27 23:53 | 33.34015 | 133.89194 | 12023 ft | 406 kts | 83° |
| 2026-04-27 23:54 | 33.34791 | 133.92394 | 12559 ft | 410 kts | 62° |
| 2026-04-27 23:54 | 33.36262 | 133.95018 | 13134 ft | 408 kts | 45° |
| 2026-04-27 23:54 | 33.38215 | 133.97194 | 13701 ft | 407 kts | 32° |
| 2026-04-27 23:54 | 33.40596 | 133.98807 | 14261 ft | 402 kts | 15° |
| 2026-04-27 23:55 | 33.43202 | 133.99422 | 14844 ft | 393 kts | 356° |
| 2026-04-27 23:55 | 33.45736 | 133.99115 | 15430 ft | 386 kts | 341° |
| 2026-04-27 23:55 | 33.48103 | 133.98202 | 16025 ft | 383 kts | 330° |
| 2026-04-27 23:55 | 33.50205 | 133.96767 | 16534 ft | 377 kts | 316° |
| 2026-04-27 23:56 | 33.51841 | 133.94694 | 17025 ft | 371 kts | 299° |
| 2026-04-27 23:56 | 33.52911 | 133.92246 | 17660 ft | 365 kts | 287° |
| 2026-04-27 23:56 | 33.53616 | 133.89587 | 18264 ft | 363 kts | 279° |
| 2026-04-27 23:56 | 33.53962 | 133.86887 | 18859 ft | 363 kts | 272° |
| 2026-04-27 23:57 | 33.54217 | 133.84097 | 19438 ft | 364 kts | 275° |
| 2026-04-27 23:57 | 33.54740 | 133.81383 | 20017 ft | 369 kts | 284° |
| 2026-04-27 23:57 | 33.55672 | 133.78784 | 20517 ft | 378 kts | 292° |
| 2026-04-27 23:57 | 33.57019 | 133.76352 | 20997 ft | 388 kts | 302° |
| 2026-04-27 23:58 | 33.58785 | 133.74152 | 21534 ft | 397 kts | 311° |
| 2026-04-27 23:58 | 33.60852 | 133.72334 | 21991 ft | 409 kts | 320° |
| 2026-04-27 23:58 | 33.63263 | 133.70879 | 22404 ft | 423 kts | 329° |
| 2026-04-27 23:58 | 33.65886 | 133.69902 | 22889 ft | 435 kts | 338° |
| 2026-04-27 23:59 | 33.68697 | 133.69421 | 23468 ft | 445 kts | 347° |
| 2026-04-27 23:59 | 33.71594 | 133.69458 | 23919 ft | 458 kts | 356° |
| 2026-04-27 23:59 | 33.74520 | 133.70013 | 24290 ft | 472 kts | 5° |
| 2026-04-27 23:59 | 33.77434 | 133.71097 | 24689 ft | 485 kts | 13° |
| 2026-04-28 00:00 | 33.80288 | 133.72729 | 25223 ft | 494 kts | 22° |
| 2026-04-28 00:00 | 33.83034 | 133.74896 | 25577 ft | 508 kts | 31° |
| 2026-04-28 00:00 | 33.85633 | 133.77484 | 26088 ft | 512 kts | 34° |
| 2026-04-28 00:00 | 33.88168 | 133.80206 | 26411 ft | 516 kts | 35° |
| 2026-04-28 00:01 | 33.90673 | 133.82831 | 26879 ft | 516 kts | 33° |
| 2026-04-28 00:01 | 33.93260 | 133.85321 | 27037 ft | 520 kts | 29° |
| 2026-04-28 00:01 | 33.96028 | 133.87663 | 27491 ft | 516 kts | 25° |
| 2026-04-28 00:01 | 33.98958 | 133.89850 | 28007 ft | 511 kts | 21° |
| 2026-04-28 00:02 | 34.01802 | 133.91748 | 28339 ft | 511 kts | 19° |
| 2026-04-28 00:02 | 34.04652 | 133.93486 | 28703 ft | 510 kts | 17° |
| 2026-04-28 00:02 | 34.07594 | 133.95166 | 29332 ft | 504 kts | 15° |
| 2026-04-28 00:02 | 34.10450 | 133.96724 | 30061 ft | 496 kts | 14° |
| 2026-04-28 00:03 | 34.13343 | 133.98256 | 30703 ft | 490 kts | 13° |
| 2026-04-28 00:03 | 34.16251 | 133.99765 | 31245 ft | 487 kts | 13° |
| 2026-04-28 00:03 | 34.19160 | 134.01286 | 31504 ft | 492 kts | 14° |
| 2026-04-28 00:03 | 34.22052 | 134.02989 | 31767 ft | 501 kts | 18° |
| 2026-04-28 00:04 | 34.24873 | 134.04900 | 32066 ft | 507 kts | 21° |
| 2026-04-28 00:04 | 34.30467 | 134.09139 | 32814 ft | 510 kts | 24° |
| 2026-04-28 00:04 | 34.33247 | 134.11345 | 32976 ft | 513 kts | 25° |
| 2026-04-28 00:05 | 34.35939 | 134.13506 | 32977 ft | 507 kts | 24° |
| 2026-04-28 00:05 | 34.41373 | 134.17877 | 32985 ft | 511 kts | 24° |
| 2026-04-28 00:06 | 34.46820 | 134.22234 | 32983 ft | 509 kts | 24° |
| 2026-04-28 00:06 | 34.52286 | 134.26575 | 32985 ft | 508 kts | 23° |
| 2026-04-28 00:07 | 34.57910 | 134.31018 | 32983 ft | 515 kts | 23° |
| 2026-04-28 00:07 | 34.63428 | 134.35393 | 32976 ft | 511 kts | 23° |
| 2026-04-28 00:08 | 34.68922 | 134.39752 | 32969 ft | 509 kts | 23° |
| 2026-04-28 00:08 | 34.74524 | 134.44194 | 32963 ft | 517 kts | 23° |
| 2026-04-28 00:09 | 34.80097 | 134.48886 | 32959 ft | 516 kts | 28° |
| 2026-04-28 00:09 | 34.85550 | 134.54011 | 32973 ft | 520 kts | 29° |
| 2026-04-28 00:10 | 34.91047 | 134.59326 | 32968 ft | 519 kts | 29° |
| 2026-04-28 00:10 | 34.96584 | 134.64656 | 32972 ft | 518 kts | 29° |
| 2026-04-28 00:11 | 35.02238 | 134.70047 | 32969 ft | 519 kts | 28° |
| 2026-04-28 00:11 | 35.07881 | 134.75392 | 32975 ft | 523 kts | 29° |
| 2026-04-28 00:12 | 35.13393 | 134.80618 | 32968 ft | 521 kts | 29° |
| 2026-04-28 00:12 | 35.18827 | 134.85771 | 32967 ft | 520 kts | 28° |
| 2026-04-28 00:13 | 35.24297 | 134.90967 | 32962 ft | 524 kts | 29° |
| 2026-04-28 00:13 | 35.30011 | 134.96396 | 32961 ft | 523 kts | 29° |
| 2026-04-28 00:14 | 35.35696 | 135.01802 | 32957 ft | 529 kts | 29° |
| 2026-04-28 00:14 | 35.41374 | 135.07233 | 32956 ft | 526 kts | 29° |
| 2026-04-28 00:15 | 35.46927 | 135.12753 | 32959 ft | 530 kts | 32° |
| 2026-04-28 00:15 | 35.52101 | 135.18904 | 32955 ft | 539 kts | 38° |
| 2026-04-28 00:16 | 35.57080 | 135.25560 | 32962 ft | 540 kts | 40° |
| 2026-04-28 00:16 | 35.61956 | 135.32326 | 32953 ft | 542 kts | 41° |
| 2026-04-28 00:17 | 35.66839 | 135.39122 | 32946 ft | 543 kts | 41° |
| 2026-04-28 00:17 | 35.71806 | 135.45987 | 32948 ft | 547 kts | 41° |
| 2026-04-28 00:18 | 35.76719 | 135.52754 | 32954 ft | 545 kts | 41° |
| 2026-04-28 00:18 | 35.81676 | 135.59589 | 32949 ft | 546 kts | 40° |
| 2026-04-28 00:19 | 35.86613 | 135.66389 | 32949 ft | 546 kts | 41° |
| 2026-04-28 00:19 | 35.91558 | 135.73213 | 32950 ft | 547 kts | 41° |
| 2026-04-28 00:20 | 35.96555 | 135.80115 | 32950 ft | 551 kts | 41° |
| 2026-04-28 00:20 | 36.01530 | 135.87015 | 32954 ft | 549 kts | 41° |
| 2026-04-28 00:21 | 36.06481 | 135.93896 | 32954 ft | 552 kts | 40° |
| 2026-04-28 00:21 | 36.11436 | 136.00800 | 32955 ft | 548 kts | 41° |
| 2026-04-28 00:22 | 36.16405 | 136.07736 | 32945 ft | 549 kts | 41° |
| 2026-04-28 00:22 | 36.21262 | 136.14534 | 32949 ft | 547 kts | 40° |
| 2026-04-28 00:23 | 36.26205 | 136.21454 | 32941 ft | 550 kts | 41° |
| 2026-04-28 00:23 | 36.28693 | 136.24947 | 32781 ft | 545 kts | 40° |
| 2026-04-28 00:23 | 36.31126 | 136.28366 | 32161 ft | 544 kts | 40° |
| 2026-04-28 00:23 | 36.33528 | 136.31743 | 31207 ft | 545 kts | 41° |
| 2026-04-28 00:24 | 36.36006 | 136.35228 | 30054 ft | 547 kts | 40° |
| 2026-04-28 00:24 | 36.38432 | 136.38652 | 29369 ft | 539 kts | 40° |
| 2026-04-28 00:24 | 36.40708 | 136.41901 | 28567 ft | 538 kts | 41° |
| 2026-04-28 00:24 | 36.42941 | 136.45285 | 27434 ft | 545 kts | 45° |
| 2026-04-28 00:25 | 36.45126 | 136.48827 | 26290 ft | 550 kts | 46° |
| 2026-04-28 00:25 | 36.47224 | 136.52383 | 25504 ft | 543 kts | 48° |
| 2026-04-28 00:25 | 36.49274 | 136.55925 | 24620 ft | 539 kts | 48° |
| 2026-04-28 00:25 | 36.51282 | 136.59418 | 24054 ft | 526 kts | 49° |
| 2026-04-28 00:26 | 36.53238 | 136.62817 | 23528 ft | 517 kts | 49° |
| 2026-04-28 00:26 | 36.55220 | 136.66240 | 22791 ft | 517 kts | 49° |
| 2026-04-28 00:26 | 36.57139 | 136.69527 | 22163 ft | 514 kts | 50° |
| 2026-04-28 00:26 | 36.59062 | 136.72807 | 21590 ft | 510 kts | 50° |
| 2026-04-28 00:27 | 36.61064 | 136.76215 | 21055 ft | 503 kts | 49° |
| 2026-04-28 00:27 | 36.63060 | 136.79654 | 20195 ft | 497 kts | 50° |
| 2026-04-28 00:27 | 36.64939 | 136.82950 | 19695 ft | 486 kts | 50° |
| 2026-04-28 00:27 | 36.66725 | 136.86108 | 19071 ft | 485 kts | 50° |
| 2026-04-28 00:28 | 36.68513 | 136.89281 | 18473 ft | 479 kts | 51° |
| 2026-04-28 00:28 | 36.70287 | 136.92445 | 17906 ft | 469 kts | 51° |
| 2026-04-28 00:28 | 36.72066 | 136.95618 | 17016 ft | 465 kts | 51° |
| 2026-04-28 00:28 | 36.73818 | 136.98743 | 16614 ft | 448 kts | 50° |
| 2026-04-28 00:29 | 36.75525 | 137.01782 | 16081 ft | 448 kts | 51° |
| 2026-04-28 00:29 | 36.77224 | 137.04767 | 15420 ft | 442 kts | 49° |
| 2026-04-28 00:29 | 36.79103 | 137.07506 | 14740 ft | 428 kts | 40° |
| 2026-04-28 00:29 | 36.81299 | 137.09569 | 14270 ft | 407 kts | 22° |
| 2026-04-28 00:30 | 36.83803 | 137.10690 | 13788 ft | 405 kts | 4° |
| 2026-04-28 00:30 | 36.86311 | 137.10944 | 13433 ft | 387 kts | 352° |
| 2026-04-28 00:30 | 36.88799 | 137.10671 | 12623 ft | 377 kts | 345° |
| 2026-04-28 00:30 | 36.91333 | 137.10002 | 11808 ft | 367 kts | 339° |
| 2026-04-28 00:31 | 36.93605 | 137.09196 | 11674 ft | 346 kts | 336° |
| 2026-04-28 00:31 | 36.95728 | 137.08386 | 11595 ft | 327 kts | 336° |
| 2026-04-28 00:31 | 36.97684 | 137.07632 | 11510 ft | 325 kts | 336° |
| 2026-04-28 00:31 | 36.99678 | 137.06867 | 11408 ft | 324 kts | 336° |
| 2026-04-28 00:32 | 37.01633 | 137.06146 | 11308 ft | 309 kts | 338° |
| 2026-04-28 00:32 | 37.03530 | 137.05653 | 11197 ft | 299 kts | 347° |
| 2026-04-28 00:32 | 37.05539 | 137.05841 | 10993 ft | 301 kts | 12° |
| 2026-04-28 00:32 | 37.07218 | 137.06935 | 10571 ft | 310 kts | 34° |
| 2026-04-28 00:33 | 37.08743 | 137.08668 | 10158 ft | 310 kts | 41° |
| 2026-04-28 00:33 | 37.10085 | 137.10544 | 10013 ft | 303 kts | 53° |
| 2026-04-28 00:33 | 37.10986 | 137.12686 | 9761 ft | 301 kts | 70° |
| 2026-04-28 00:33 | 37.11361 | 137.15050 | 9461 ft | 297 kts | 90° |
| 2026-04-28 00:34 | 37.11349 | 137.17485 | 9149 ft | 295 kts | 96° |
| 2026-04-28 00:34 | 37.11246 | 137.19888 | 8854 ft | 293 kts | 96° |
| 2026-04-28 00:34 | 37.11116 | 137.22317 | 8518 ft | 299 kts | 101° |
| 2026-04-28 00:34 | 37.10663 | 137.24741 | 8134 ft | 291 kts | 116° |
| 2026-04-28 00:35 | 37.09681 | 137.26759 | 7759 ft | 279 kts | 136° |
| 2026-04-28 00:35 | 37.08416 | 137.28386 | 7417 ft | 273 kts | 142° |
| 2026-04-28 00:35 | 37.07085 | 137.29799 | 7168 ft | 262 kts | 153° |
| 2026-04-28 00:35 | 37.05582 | 137.30685 | 6929 ft | 245 kts | 168° |
| 2026-04-28 00:36 | 37.04006 | 137.31027 | 6678 ft | 241 kts | 185° |
| 2026-04-28 00:36 | 37.02454 | 137.30733 | 6373 ft | 243 kts | 197° |
| 2026-04-28 00:36 | 37.00896 | 137.30193 | 6013 ft | 245 kts | 199° |
| 2026-04-28 00:36 | 36.99339 | 137.29642 | 5651 ft | 243 kts | 198° |
| 2026-04-28 00:37 | 36.97784 | 137.29126 | 5311 ft | 243 kts | 197° |
| 2026-04-28 00:37 | 36.96241 | 137.28635 | 5092 ft | 235 kts | 197° |
| 2026-04-28 00:37 | 36.94728 | 137.28159 | 4876 ft | 229 kts | 197° |
| 2026-04-28 00:37 | 36.93188 | 137.27670 | 4644 ft | 244 kts | 197° |
| 2026-04-28 00:38 | 36.91602 | 137.27165 | 4382 ft | 242 kts | 197° |
| 2026-04-28 00:38 | 36.90014 | 137.26663 | 4055 ft | 241 kts | 196° |
| 2026-04-28 00:38 | 36.88496 | 137.26184 | 3805 ft | 233 kts | 196° |
| 2026-04-28 00:38 | 36.87046 | 137.25726 | 3673 ft | 222 kts | 196° |
| 2026-04-28 00:39 | 36.85644 | 137.25284 | 3502 ft | 218 kts | 196° |
| 2026-04-28 00:39 | 36.84269 | 137.24847 | 3319 ft | 213 kts | 196° |
| 2026-04-28 00:39 | 36.82908 | 137.24414 | 3122 ft | 205 kts | 196° |
| 2026-04-28 00:39 | 36.81633 | 137.23996 | 2981 ft | 195 kts | 196° |
| 2026-04-28 00:40 | 36.80400 | 137.23587 | 2839 ft | 188 kts | 196° |
| 2026-04-28 00:40 | 36.79176 | 137.23180 | 2624 ft | 191 kts | 195° |
| 2026-04-28 00:40 | 36.77945 | 137.22778 | 2346 ft | 191 kts | 196° |
| 2026-04-28 00:40 | 36.76741 | 137.22386 | 2080 ft | 190 kts | 195° |
| 2026-04-28 00:41 | 36.75534 | 137.21992 | 1981 ft | 180 kts | 196° |
| 2026-04-28 00:41 | 36.74411 | 137.21626 | 1851 ft | 180 kts | 196° |
| 2026-04-28 00:41 | 36.73304 | 137.21272 | 1699 ft | 172 kts | 195° |
| 2026-04-28 00:41 | 36.72209 | 137.20943 | 1526 ft | 165 kts | 194° |
| 2026-04-28 00:42 | 36.71186 | 137.20639 | 1336 ft | 159 kts | 194° |
| 2026-04-28 00:42 | 36.70228 | 137.20351 | 1166 ft | 149 kts | 194° |
| 2026-04-28 00:42 | 36.69302 | 137.20073 | 985 ft | 147 kts | 194° |
| 2026-04-28 00:42 | 36.68392 | 137.19791 | 714 ft | 146 kts | 194° |
| 2026-04-28 00:43 | 36.67462 | 137.19524 | 471 ft | 149 kts | 192° |
| 2026-04-28 00:43 | 36.66565 | 137.19263 | 257 ft | 144 kts | 193° |
| 2026-04-28 00:43 | 36.65653 | 137.18976 | 85 ft | 145 kts | 192° |
| 2026-04-28 00:43 | 36.64765 | 137.18718 | 74 ft | 111 kts | 193° |
| 2026-04-28 00:44 | 36.64288 | 137.18568 | 82 ft | 38 kts | 192° |
| 2026-04-28 00:44 | 36.64061 | 137.18475 | 85 ft | 26 kts | 218° |
| 2026-04-28 00:44 | 36.64008 | 137.18484 | 86 ft | 9 kts | 39° |
| 2026-04-28 00:44 | 36.64097 | 137.18523 | 85 ft | 18 kts | 13° |
| 2026-04-28 00:45 | 36.64237 | 137.18564 | 83 ft | 27 kts | 12° |
| 2026-04-28 00:45 | 36.64391 | 137.18640 | 81 ft | 20 kts | 60° |
| 2026-04-28 00:45 | 36.64428 | 137.18741 | 83 ft | 11 kts | 48° |
| 2026-04-28 00:45 | 36.64429 | 137.18811 | 83 ft | 9 kts | 122° |
| 2026-04-28 00:46 | 36.64412 | 137.18842 | 83 ft | 0 kts | 124° |
| 2026-04-28 00:46 | 36.64413 | 137.18842 | 83 ft | 0 kts | 124° |
| 2026-04-28 00:46 | 36.64411 | 137.18843 | 84 ft | 0 kts | 125° |